Time;durP1;ratioP1;P1;durP2;ratioP2;P2;SDS_P1;SDS_P2;PMS_P1;PMS_P2;Temp;Humidity;BMP_temperature;BMP_pressure;BME280_temperature;BME280_humidity;BME280_pressure;Samples;Min_cycle;Max_cycle;Signal;HPM_P1;HPM_P2
2021/05/24 00:01:39;;;;;;;3.88;2.90;;;;;;;8.69;61.57;100260.94;8019421;35;20148;-73
2021/05/24 00:06:42;;;;;;;6.85;3.40;;;;;;;8.68;61.59;100251.22;7993197;35;20446;-72
2021/05/24 00:11:49;;;;;;;5.60;3.28;;;;;;;8.65;61.66;100241.59;8008417;35;20370;-73
2021/05/24 00:16:53;;;;;;;7.85;3.25;;;;;;;8.65;61.59;100244.28;8007878;35;20479;-73
2021/05/24 00:21:56;;;;;;;5.07;2.90;;;;;;;8.67;61.39;100239.66;8021970;35;20195;-73
2021/05/24 00:26:58;;;;;;;4.45;2.63;;;;;;;8.60;61.45;100230.38;7994213;35;20925;-72
2021/05/24 00:32:03;;;;;;;4.47;3.08;;;;;;;8.53;61.53;100224.63;8009034;35;20448;-73
2021/05/24 00:37:05;;;;;;;3.40;2.88;;;;;;;8.52;61.43;100220.22;8004192;35;20175;-73
2021/05/24 00:42:08;;;;;;;3.15;2.85;;;;;;;8.48;61.71;100223.28;8005512;35;20486;-72
2021/05/24 00:47:12;;;;;;;4.75;2.85;;;;;;;8.43;61.68;100214.69;8003419;35;20452;-73
2021/05/24 00:52:15;;;;;;;3.53;2.95;;;;;;;8.38;61.32;100215.03;8000191;35;20198;-72
2021/05/24 00:57:18;;;;;;;6.50;3.20;;;;;;;8.32;61.65;100207.47;7996715;35;20188;-72
2021/05/24 01:02:21;;;;;;;3.75;2.40;;;;;;;8.25;61.92;100193.66;7997199;35;20160;-73
2021/05/24 01:07:24;;;;;;;5.00;3.05;;;;;;;8.22;62.45;100185.88;7997190;35;20504;-72
2021/05/24 01:12:26;;;;;;;3.65;2.78;;;;;;;8.15;62.23;100184.63;7997545;35;20152;-73
2021/05/24 01:17:30;;;;;;;3.70;2.95;;;;;;;8.11;62.26;100177.78;7976718;35;20573;-73
2021/05/24 01:22:37;;;;;;;7.00;3.42;;;;;;;8.08;62.50;100172.66;8000619;35;20686;-72
2021/05/24 01:27:39;;;;;;;5.32;3.10;;;;;;;8.03;62.84;100167.66;8003422;35;20199;-73
2021/05/24 01:32:42;;;;;;;3.05;2.42;;;;;;;8.02;62.74;100165.09;8002884;35;20521;-72
2021/05/24 01:37:46;;;;;;;3.85;2.70;;;;;;;8.01;62.57;100152.69;8002825;35;21417;-72
2021/05/24 01:42:53;;;;;;;4.57;2.42;;;;;;;7.98;62.55;100152.91;8002023;35;20258;-72
2021/05/24 01:47:56;;;;;;;3.15;2.50;;;;;;;7.95;62.40;100151.31;8052734;35;20644;-72
2021/05/24 01:52:59;;;;;;;7.60;2.70;;;;;;;7.92;62.70;100146.19;8066115;35;20155;-72
2021/05/24 01:58:03;;;;;;;3.60;2.80;;;;;;;7.88;62.68;100144.72;8064924;35;20517;-72
2021/05/24 02:03:07;;;;;;;3.10;2.60;;;;;;;7.86;62.84;100138.63;8038856;35;20920;-72
2021/05/24 02:08:10;;;;;;;2.83;2.60;;;;;;;7.84;62.82;100137.88;8056656;35;20202;-72
2021/05/24 02:13:13;;;;;;;4.68;2.63;;;;;;;7.81;63.05;100138.09;8054433;35;20898;-72
2021/05/24 02:18:16;;;;;;;5.40;3.08;;;;;;;7.78;63.30;100138.34;8053457;35;20468;-72
2021/05/24 02:23:19;;;;;;;4.75;2.50;;;;;;;7.74;63.55;100145.75;8051012;35;20155;-72
2021/05/24 02:28:22;;;;;;;3.22;2.38;;;;;;;7.71;63.70;100135.28;8050477;35;20899;-72
2021/05/24 02:33:25;;;;;;;3.45;2.72;;;;;;;7.68;64.02;100140.84;8051032;35;20443;-72
2021/05/24 02:38:28;;;;;;;7.53;2.78;;;;;;;7.60;64.40;100136.06;8050612;35;20502;-72
2021/05/24 02:43:31;;;;;;;3.65;2.88;;;;;;;7.60;64.45;100136.06;8050468;35;20787;-72
2021/05/24 02:48:34;;;;;;;2.95;2.63;;;;;;;7.43;64.65;100125.72;8049430;35;20439;-72
2021/05/24 02:53:38;;;;;;;6.15;2.83;;;;;;;7.48;65.26;100112.88;8050694;35;21170;-72
2021/05/24 02:58:40;;;;;;;4.00;2.65;;;;;;;7.40;65.09;100102.72;8050994;35;20214;-72
2021/05/24 03:03:43;;;;;;;3.80;2.78;;;;;;;7.38;64.86;100098.47;8052082;35;20507;-72
2021/05/24 03:08:47;;;;;;;4.70;2.80;;;;;;;7.34;65.41;100094.31;8053840;35;20657;-72
2021/05/24 03:13:51;;;;;;;4.32;2.42;;;;;;;7.33;65.63;100103.31;8047694;35;20504;-72
2021/05/24 03:18:53;;;;;;;4.20;2.80;;;;;;;7.33;65.60;100089.94;8047144;35;20166;-72
2021/05/24 03:23:57;;;;;;;4.47;2.72;;;;;;;7.24;65.37;100089.63;8046684;35;20430;-74
2021/05/24 03:28:59;;;;;;;2.92;2.50;;;;;;;7.34;65.64;100081.81;8047870;35;20170;-73
2021/05/24 03:34:02;;;;;;;2.75;2.33;;;;;;;7.32;65.61;100086.38;8051854;35;20963;-72
2021/05/24 03:39:07;;;;;;;5.47;2.90;;;;;;;7.38;65.41;100077.97;8053563;35;20973;-72
2021/05/24 03:44:09;;;;;;;3.40;2.60;;;;;;;7.38;65.68;100074.44;8053286;35;20638;-72
2021/05/24 03:49:12;;;;;;;3.63;2.30;;;;;;;7.35;65.75;100080.84;8047244;35;20964;-72
2021/05/24 03:54:16;;;;;;;2.35;1.90;;;;;;;7.47;65.84;100079.09;8044208;35;20447;-72
2021/05/24 03:59:19;;;;;;;3.10;2.38;;;;;;;7.64;65.36;100081.38;8020817;35;20186;-72
2021/05/24 04:04:22;;;;;;;3.97;2.50;;;;;;;7.69;65.38;100081.91;8042321;35;21379;-72
2021/05/24 04:09:26;;;;;;;3.55;2.30;;;;;;;7.78;65.50;100092.88;8043656;35;20169;-72
2021/05/24 04:14:28;;;;;;;2.28;2.05;;;;;;;7.82;65.33;100075.66;8042912;35;21456;-72
2021/05/24 04:19:31;;;;;;;3.35;2.65;;;;;;;7.92;65.16;100076.66;8018351;35;20136;-72
2021/05/24 04:24:35;;;;;;;3.33;2.30;;;;;;;8.08;65.15;100071.88;8042335;35;20483;-71
2021/05/24 04:29:37;;;;;;;4.63;2.00;;;;;;;8.25;64.78;100065.22;8043647;35;20175;-72
2021/05/24 04:34:40;;;;;;;2.50;2.30;;;;;;;8.40;64.77;100069.41;8044952;35;20436;-72
2021/05/24 04:39:44;;;;;;;4.60;2.53;;;;;;;8.58;64.71;100053.78;8045730;35;20194;-72
2021/05/24 04:44:47;;;;;;;2.30;2.10;;;;;;;8.67;64.40;100054.06;8054053;35;20295;-72
2021/05/24 04:49:50;;;;;;;3.13;2.20;;;;;;;8.89;64.48;100056.75;8052607;35;20625;-72
2021/05/24 04:54:53;;;;;;;3.22;1.92;;;;;;;9.03;63.67;100059.16;8053093;35;20496;-72
2021/05/24 04:59:56;;;;;;;2.85;2.25;;;;;;;9.23;63.67;100046.00;8049464;35;20143;-73
2021/05/24 05:04:59;;;;;;;4.22;2.03;;;;;;;9.39;63.26;100045.59;8027206;35;20464;-72
2021/05/24 05:10:04;;;;;;;2.30;2.10;;;;;;;9.54;63.59;100033.59;8043025;35;21168;-73
2021/05/24 05:15:08;;;;;;;2.05;1.60;;;;;;;9.65;63.80;100028.25;8042260;35;22680;-73
2021/05/24 05:20:14;;;;;;;2.92;2.10;;;;;;;9.79;63.35;100028.91;8040623;35;20480;-72
2021/05/24 05:25:17;;;;;;;2.72;1.90;;;;;;;9.96;62.98;100031.06;8039219;35;20158;-73
2021/05/24 05:30:20;;;;;;;2.17;1.98;;;;;;;9.91;62.96;100020.72;8037702;35;20480;-73
2021/05/24 05:35:23;;;;;;;2.10;1.50;;;;;;;10.00;63.12;100029.81;8043994;35;20456;-73
2021/05/24 05:40:28;;;;;;;1.85;1.70;;;;;;;10.20;63.15;100021.91;8045223;35;21235;-73
2021/05/24 05:45:30;;;;;;;2.72;1.80;;;;;;;10.38;63.00;100029.25;8018132;35;21486;-73
2021/05/24 05:50:33;;;;;;;2.40;1.45;;;;;;;10.76;60.59;100019.69;8042279;35;20973;-73
2021/05/24 05:55:37;;;;;;;1.33;1.13;;;;;;;11.20;58.22;100011.41;8045590;35;21130;-73
2021/05/24 06:00:40;;;;;;;2.17;1.20;;;;;;;11.60;56.57;100013.16;8047004;35;20186;-72
2021/05/24 06:05:42;;;;;;;1.77;1.30;;;;;;;11.65;56.16;99995.59;8046602;35;20194;-72
2021/05/24 06:10:46;;;;;;;1.88;1.15;;;;;;;11.90;55.62;99998.72;8046459;35;20890;-71
2021/05/24 06:15:49;;;;;;;2.45;1.20;;;;;;;12.29;54.25;100010.34;8049005;35;21529;-71
2021/05/24 06:20:51;;;;;;;1.05;1.00;;;;;;;12.67;53.58;100002.28;8051493;35;20227;-71
2021/05/24 06:25:55;;;;;;;1.30;1.20;;;;;;;12.74;52.93;99990.78;8053757;35;20163;-72
2021/05/24 06:30:58;;;;;;;1.70;1.00;;;;;;;12.96;52.10;99986.00;8053347;35;20447;-72
2021/05/24 06:36:01;;;;;;;0.93;0.80;;;;;;;13.23;51.08;99985.16;8055479;35;20586;-72
2021/05/24 06:41:04;;;;;;;2.03;1.17;;;;;;;13.37;50.60;99981.97;8065486;35;22246;-72
2021/05/24 06:46:07;;;;;;;1.10;1.00;;;;;;;13.57;50.24;99982.66;8065152;35;20474;-72
2021/05/24 06:51:10;;;;;;;2.65;1.00;;;;;;;13.48;50.28;99979.03;8061307;35;22650;-72
2021/05/24 06:56:14;;;;;;;1.42;1.00;;;;;;;13.65;50.15;99985.44;8072783;35;20154;-72
2021/05/24 07:01:17;;;;;;;1.67;0.90;;;;;;;13.74;49.46;99975.59;8024323;35;20658;-72
2021/05/24 07:06:20;;;;;;;1.08;1.00;;;;;;;13.66;49.03;99965.56;8022439;35;20452;-71
2021/05/24 07:11:24;;;;;;;1.17;1.10;;;;;;;14.05;49.10;99954.41;8021839;35;20506;-72
2021/05/24 07:16:26;;;;;;;1.20;1.10;;;;;;;14.44;47.56;99953.19;8014532;35;20184;-72
2021/05/24 07:21:29;;;;;;;2.35;1.05;;;;;;;14.69;46.11;99943.34;8022278;35;20491;-72
2021/05/24 07:26:32;;;;;;;2.75;1.30;;;;;;;14.95;45.56;99946.00;7999506;35;20220;-72
2021/05/24 07:31:35;;;;;;;4.05;0.80;;;;;;;15.00;45.57;99938.22;8020580;35;20488;-72
2021/05/24 07:36:38;;;;;;;2.65;0.90;;;;;;;15.29;45.16;99936.97;8018622;35;21000;-72
2021/05/24 07:41:41;;;;;;;1.23;1.13;;;;;;;15.21;44.52;99930.50;8019847;35;20227;-72
2021/05/24 07:46:45;;;;;;;1.85;0.90;;;;;;;15.65;43.49;99919.44;8019596;35;20564;-72
2021/05/24 07:51:48;;;;;;;2.30;1.10;;;;;;;15.49;43.72;99932.94;8063743;35;21657;-72
2021/05/24 07:56:52;;;;;;;0.82;0.80;;;;;;;15.46;42.95;99903.53;8065476;35;20973;-72
2021/05/24 08:01:54;;;;;;;2.00;1.00;;;;;;;15.78;42.89;99907.28;8074731;35;20285;-72
2021/05/24 08:06:57;;;;;;;0.85;0.80;;;;;;;15.93;41.21;99921.78;8077121;35;20464;-72
2021/05/24 08:12:01;;;;;;;2.28;1.10;;;;;;;16.28;41.04;99901.63;8081600;35;20433;-74
2021/05/24 08:17:03;;;;;;;0.90;0.80;;;;;;;16.59;40.41;99895.44;8079516;35;20246;-72
2021/05/24 08:22:06;;;;;;;3.20;0.90;;;;;;;16.58;40.79;99916.28;8029159;35;20468;-72
2021/05/24 08:27:10;;;;;;;2.83;0.93;;;;;;;16.87;39.11;99884.97;8029210;35;20447;-72
2021/05/24 08:32:12;;;;;;;1.50;1.02;;;;;;;16.85;39.00;99884.31;8028365;35;20227;-72
2021/05/24 08:37:15;;;;;;;0.80;0.80;;;;;;;17.37;39.52;99871.97;8029193;35;20207;-71
2021/05/24 08:42:19;;;;;;;1.33;0.70;;;;;;;17.33;38.96;99868.75;8034724;35;20555;-71
2021/05/24 08:47:23;;;;;;;0.90;0.90;;;;;;;17.62;38.07;99865.31;8032807;35;21733;-72
2021/05/24 08:52:45;;;;;;;1.02;0.70;;;;;;;17.82;36.80;99867.50;8031313;35;20444;-72
2021/05/24 08:57:48;;;;;;;1.52;0.70;;;;;;;17.22;35.36;99866.47;8030995;35;20275;-73
2021/05/24 09:02:53;;;;;;;2.03;0.77;;;;;;;17.98;36.35;99855.69;8034475;35;20582;-71
2021/05/24 09:07:59;;;;;;;0.60;0.60;;;;;;;18.48;35.50;99843.22;8030346;35;20230;-71
2021/05/24 09:13:09;;;;;;;2.75;0.82;;;;;;;18.36;34.70;99868.16;8024521;35;20191;-72
2021/05/24 09:18:13;;;;;;;0.77;0.70;;;;;;;19.17;34.84;99834.63;8024594;35;20159;-71
2021/05/24 09:23:19;;;;;;;2.83;0.80;;;;;;;18.19;34.76;99839.50;8023715;35;20665;-71
2021/05/24 09:28:41;;;;;;;1.00;0.70;;;;;;;18.72;33.54;99844.78;8022189;35;20164;-71
2021/05/24 09:33:46;;;;;;;1.33;0.80;;;;;;;18.59;35.18;99837.28;8011546;35;20535;-72
2021/05/24 09:38:51;;;;;;;0.70;0.70;;;;;;;18.42;35.20;99808.63;8007460;35;20175;-72
2021/05/24 09:43:57;;;;;;;0.85;0.70;;;;;;;18.58;34.83;99825.56;8019367;35;21504;-72
2021/05/24 09:49:02;;;;;;;1.30;0.95;;;;;;;18.25;35.10;99825.13;8018483;35;20152;-71
2021/05/24 09:54:09;;;;;;;1.20;0.88;;;;;;;18.48;34.87;99807.88;8018671;35;20466;-71
2021/05/24 09:59:16;;;;;;;2.80;0.90;;;;;;;18.54;33.85;99796.22;8015904;35;20287;-72
2021/05/24 10:04:22;;;;;;;0.68;0.68;;;;;;;18.61;33.85;99788.16;8016544;35;21674;-72
2021/05/24 10:09:25;;;;;;;0.80;0.80;;;;;;;19.14;32.20;99759.66;8008639;35;20439;-72
2021/05/24 10:14:29;;;;;;;2.08;0.65;;;;;;;19.07;32.65;99755.19;8001321;35;21440;-72
2021/05/24 10:19:32;;;;;;;1.38;0.70;;;;;;;18.67;33.23;99749.31;8001499;35;20174;-72
2021/05/24 10:24:35;;;;;;;0.88;0.60;;;;;;;19.07;33.01;99749.75;8004550;35;20451;-72
2021/05/24 10:29:40;;;;;;;2.40;1.00;;;;;;;19.32;32.19;99736.56;8027228;35;20224;-72
2021/05/24 10:34:43;;;;;;;1.40;0.57;;;;;;;19.39;31.48;99716.53;8009776;35;20437;-72
2021/05/24 10:39:49;;;;;;;1.10;1.05;;;;;;;20.19;31.10;99721.63;7986717;35;20345;-72
2021/05/24 10:44:53;;;;;;;0.98;0.68;;;;;;;20.27;30.77;99707.81;8019840;35;20900;-72
2021/05/24 10:50:04;;;;;;;0.60;0.60;;;;;;;19.53;31.05;99698.38;8021757;35;20208;-72
2021/05/24 10:55:35;;;;;;;3.55;1.02;;;;;;;20.91;29.24;99684.66;8023120;35;20144;-72
2021/05/24 11:00:54;;;;;;;1.23;0.60;;;;;;;21.40;27.90;99670.59;8024070;35;20652;-73
2021/05/24 11:06:13;;;;;;;1.00;0.60;;;;;;;20.85;29.56;99672.69;8020756;35;20221;-72
2021/05/24 11:11:23;;;;;;;1.02;0.60;;;;;;;20.45;30.23;99663.63;8020450;35;20148;-73
2021/05/24 11:16:28;;;;;;;2.08;0.60;;;;;;;21.84;29.44;99655.38;8006076;35;20564;-72
2021/05/24 11:21:30;;;;;;;2.08;1.08;;;;;;;21.42;29.07;99640.34;8005587;35;20218;-72
2021/05/24 11:26:35;;;;;;;1.45;0.88;;;;;;;21.50;30.53;99653.75;8005510;35;20228;-73
2021/05/24 11:31:51;;;;;;;1.75;1.33;;;;;;;20.72;28.54;99634.47;8004864;35;21062;-72
2021/05/24 11:36:57;;;;;;;1.00;0.70;;;;;;;21.07;29.50;99648.78;8003520;35;20457;-72
2021/05/24 11:42:04;;;;;;;4.63;1.10;;;;;;;20.89;30.28;99648.56;8004070;35;20266;-72
2021/05/24 11:47:10;;;;;;;1.90;0.80;;;;;;;21.01;29.35;99617.69;8014921;35;20468;-72
2021/05/24 11:52:33;;;;;;;0.90;0.68;;;;;;;21.61;28.68;99623.06;8016888;35;20290;-73
2021/05/24 11:57:42;;;;;;;2.38;0.82;;;;;;;20.54;30.61;99633.22;8017653;35;20136;-72
2021/05/24 12:02:46;;;;;;;1.73;0.70;;;;;;;20.30;30.21;99614.69;8020282;35;20167;-72
2021/05/24 12:07:49;;;;;;;0.95;0.80;;;;;;;20.29;30.13;99632.06;8018326;35;20179;-72
2021/05/24 12:12:53;;;;;;;2.55;0.60;;;;;;;20.90;29.62;99612.00;8020005;35;21143;-71
2021/05/24 12:18:00;;;;;;;0.95;0.88;;;;;;;20.46;29.64;99630.69;8017601;35;20462;-71
2021/05/24 12:23:02;;;;;;;1.33;0.65;;;;;;;20.04;28.69;99640.81;8014675;35;20187;-71
2021/05/24 12:28:08;;;;;;;1.15;0.80;;;;;;;19.20;30.39;99625.47;8003478;35;20577;-71
2021/05/24 12:33:14;;;;;;;2.92;0.75;;;;;;;19.30;30.63;99616.09;8002962;35;20886;-71
2021/05/24 12:38:25;;;;;;;1.15;0.50;;;;;;;19.35;31.25;99619.91;8000686;35;20592;-71
2021/05/24 12:43:28;;;;;;;1.52;0.50;;;;;;;18.92;32.03;99622.75;7998433;35;20483;-71
2021/05/24 12:48:32;;;;;;;2.00;0.80;;;;;;;18.97;32.01;99619.44;7995987;35;20433;-71
2021/05/24 12:53:38;;;;;;;0.90;0.70;;;;;;;18.79;32.50;99620.78;7995099;35;20187;-71
2021/05/24 12:58:40;;;;;;;0.50;0.50;;;;;;;18.35;32.34;99610.09;7974567;35;20179;-71
2021/05/24 13:03:48;;;;;;;2.08;0.77;;;;;;;18.33;32.12;99607.56;7976394;35;20982;-71
2021/05/24 13:08:53;;;;;;;3.60;1.23;;;;;;;18.51;32.95;99598.09;7998365;35;20458;-71
2021/05/24 13:14:01;;;;;;;1.02;0.65;;;;;;;18.18;32.62;99609.47;7998015;35;20483;-72
2021/05/24 13:24:51;;;;;;;0.60;0.60;;;;;;;18.08;32.74;99604.38;8001272;35;20462;-72
2021/05/24 13:30:06;;;;;;;0.77;0.70;;;;;;;17.73;33.90;99619.59;7998453;35;20571;-72
2021/05/24 13:35:31;;;;;;;0.85;0.75;;;;;;;18.14;36.42;99613.63;8000871;35;20544;-72
2021/05/24 13:40:36;;;;;;;0.75;0.70;;;;;;;17.45;36.67;99616.72;7997900;35;20357;-72
2021/05/24 13:45:39;;;;;;;1.63;0.90;;;;;;;17.42;37.44;99626.09;7997417;35;21975;-71
2021/05/24 13:50:43;;;;;;;0.75;0.75;;;;;;;17.50;36.34;99637.84;7997509;35;20590;-72
2021/05/24 13:55:45;;;;;;;1.02;0.77;;;;;;;17.39;36.82;99650.06;7996825;35;22044;-72
2021/05/24 14:00:48;;;;;;;2.63;1.02;;;;;;;17.28;38.23;99655.91;8016401;35;20964;-72
2021/05/24 14:05:52;;;;;;;0.90;0.80;;;;;;;16.34;42.24;99667.84;8029614;35;20542;-72
2021/05/24 14:10:54;;;;;;;1.77;0.90;;;;;;;15.32;46.36;99683.13;8009785;35;20151;-72
2021/05/24 14:15:57;;;;;;;2.83;0.93;;;;;;;14.29;54.55;99721.41;8014568;35;20190;-72
2021/05/24 14:21:01;;;;;;;3.40;1.30;;;;;;;13.37;62.76;99716.75;8017024;35;20494;-72
2021/05/24 14:26:05;;;;;;;1.43;1.30;;;;;;;12.85;66.89;99719.38;8009998;35;21051;-72
2021/05/24 14:31:09;;;;;;;2.38;1.80;;;;;;;12.44;70.28;99719.81;8009247;35;20366;-72
2021/05/24 14:36:14;;;;;;;1.90;1.58;;;;;;;12.56;72.63;99732.09;8005424;35;20459;-72
2021/05/24 14:41:16;;;;;;;4.15;1.15;;;;;;;12.12;72.55;99742.69;8000757;35;20167;-72
2021/05/24 14:46:20;;;;;;;3.20;1.65;;;;;;;11.80;73.17;99747.66;8002499;35;22179;-72
2021/05/24 14:51:27;;;;;;;1.70;1.60;;;;;;;12.03;73.30;99766.94;8009362;35;21747;-72
2021/05/24 14:56:30;;;;;;;3.65;1.83;;;;;;;11.71;71.01;99763.69;8024053;35;20464;-72
2021/05/24 15:01:33;;;;;;;2.00;1.60;;;;;;;11.61;71.30;99762.84;7999852;35;21489;-72
2021/05/24 15:06:36;;;;;;;3.35;1.45;;;;;;;11.76;75.66;99768.59;8019201;35;20452;-72
2021/05/24 15:11:39;;;;;;;2.08;1.70;;;;;;;11.50;74.48;99773.78;8023463;35;20432;-72
2021/05/24 15:16:43;;;;;;;3.13;1.67;;;;;;;11.37;73.18;99775.94;8046131;35;20241;-72
2021/05/24 15:21:46;;;;;;;3.25;1.70;;;;;;;11.22;73.28;99779.06;8057937;35;20151;-72
2021/05/24 15:26:49;;;;;;;2.97;1.70;;;;;;;10.82;72.21;99780.03;8058001;35;20472;-72
2021/05/24 15:31:54;;;;;;;2.00;1.70;;;;;;;10.67;73.18;99767.16;8068572;35;20483;-72
2021/05/24 15:36:58;;;;;;;3.25;1.50;;;;;;;11.02;73.54;99774.66;8069073;35;20492;-72
2021/05/24 15:42:03;;;;;;;7.63;2.15;;;;;;;10.95;73.73;99765.47;8060640;35;20182;-72
2021/05/24 15:47:06;;;;;;;3.60;1.67;;;;;;;10.92;74.11;99765.78;8043985;35;20218;-72
2021/05/24 15:52:09;;;;;;;3.13;1.75;;;;;;;10.68;73.07;99748.22;8072080;35;20195;-72
2021/05/24 15:57:12;;;;;;;2.80;2.05;;;;;;;10.99;74.31;99727.41;8070039;35;20444;-72
2021/05/24 16:02:15;;;;;;;4.22;2.08;;;;;;;10.95;72.42;99730.56;8063118;35;20693;-71
2021/05/24 16:07:19;;;;;;;2.20;2.00;;;;;;;11.34;73.35;99719.75;8057506;35;21757;-72
2021/05/24 16:12:21;;;;;;;2.53;2.05;;;;;;;11.45;72.54;99714.22;8034611;35;20210;-71
2021/05/24 16:17:24;;;;;;;5.85;2.22;;;;;;;11.66;72.97;99717.53;8056682;35;20457;-71
2021/05/24 16:22:28;;;;;;;2.83;1.92;;;;;;;11.76;72.36;99705.88;8068211;35;20474;-71
2021/05/24 16:27:32;;;;;;;5.50;3.38;;;;;;;11.76;72.82;99711.25;8069961;35;20567;-71
2021/05/24 16:32:36;;;;;;;12.27;6.57;;;;;;;12.12;73.78;99709.50;8070106;35;20205;-71
2021/05/24 16:37:41;;;;;;;2.53;2.10;;;;;;;12.16;72.83;99706.38;8066140;35;21419;-71
2021/05/24 16:42:43;;;;;;;3.35;1.55;;;;;;;11.66;70.21;99705.94;8059859;35;20843;-72
2021/05/24 16:47:46;;;;;;;2.58;1.60;;;;;;;11.66;70.37;99698.69;8024552;35;20623;-72
2021/05/24 16:52:50;;;;;;;2.65;1.75;;;;;;;11.57;69.21;99704.94;8016619;35;20476;-72
2021/05/24 16:57:52;;;;;;;3.13;1.75;;;;;;;11.71;70.58;99690.16;8024444;35;20951;-72
2021/05/24 17:02:55;;;;;;;3.55;1.77;;;;;;;11.64;69.19;99692.63;8016178;35;21068;-71
2021/05/24 17:07:59;;;;;;;2.53;1.60;;;;;;;11.66;69.19;99679.88;8054816;35;20439;-72
2021/05/24 17:13:03;;;;;;;1.50;1.30;;;;;;;11.80;67.84;99672.31;8076798;35;20179;-72
2021/05/24 17:18:07;;;;;;;3.10;1.38;;;;;;;11.81;68.97;99676.69;8053867;35;20457;-72
2021/05/24 17:23:10;;;;;;;6.28;1.60;;;;;;;11.95;69.77;99678.88;8030376;35;20173;-72
2021/05/24 17:28:13;;;;;;;1.70;1.48;;;;;;;12.23;72.52;99673.44;8023025;35;20689;-72
2021/05/24 17:33:16;;;;;;;3.20;1.60;;;;;;;12.41;70.67;99660.88;8020112;35;20614;-72
2021/05/24 17:38:19;;;;;;;4.47;1.60;;;;;;;12.60;72.78;99665.25;8029456;35;20187;-72
2021/05/24 17:43:22;;;;;;;3.17;2.00;;;;;;;12.53;71.24;99661.47;8026146;35;21415;-71
2021/05/24 17:48:25;;;;;;;2.42;1.60;;;;;;;12.64;72.65;99666.63;8025807;35;20328;-71
2021/05/24 17:53:29;;;;;;;1.88;1.67;;;;;;;12.64;71.32;99669.31;8003874;35;20175;-72
2021/05/24 17:58:34;;;;;;;3.08;1.92;;;;;;;12.46;70.69;99666.66;8001413;35;20140;-72
2021/05/24 18:03:38;;;;;;;3.58;1.80;;;;;;;12.32;71.08;99669.88;8039834;35;20194;-71
2021/05/24 18:08:41;;;;;;;2.13;1.92;;;;;;;12.30;72.59;99661.09;8051693;35;20162;-72
2021/05/24 18:13:46;;;;;;;2.10;1.80;;;;;;;12.34;70.85;99659.78;8051851;35;20437;-71
2021/05/24 18:18:48;;;;;;;2.30;1.70;;;;;;;12.42;72.01;99656.34;8038538;35;20785;-71
2021/05/24 18:23:52;;;;;;;1.75;1.50;;;;;;;12.22;69.50;99658.31;8043980;35;20563;-71
2021/05/24 18:28:55;;;;;;;1.75;1.65;;;;;;;12.14;69.26;99646.44;8051097;35;22254;-71
2021/05/24 18:33:58;;;;;;;2.63;1.50;;;;;;;12.20;70.69;99639.59;8052434;35;20484;-71
2021/05/24 18:39:02;;;;;;;2.05;1.70;;;;;;;12.17;71.12;99635.34;8052471;35;20151;-71
2021/05/24 18:44:06;;;;;;;3.13;1.60;;;;;;;12.03;71.48;99637.75;8054510;35;20185;-71
2021/05/24 18:49:09;;;;;;;2.35;1.60;;;;;;;11.83;72.14;99642.41;8055927;35;20466;-71
2021/05/24 18:54:12;;;;;;;1.80;1.50;;;;;;;11.77;71.23;99641.16;8049200;35;20151;-72
2021/05/24 18:59:15;;;;;;;2.67;1.50;;;;;;;11.67;70.96;99643.88;8052328;35;20913;-72
2021/05/24 19:04:25;;;;;;;2.33;1.30;;;;;;;11.47;68.46;99645.00;8037291;35;20483;-72
2021/05/24 19:09:29;;;;;;;1.63;1.30;;;;;;;11.47;69.32;99648.53;8052672;35;20303;-72
2021/05/24 19:14:32;;;;;;;2.55;1.58;;;;;;;11.43;69.14;99639.03;8051924;35;20652;-72
2021/05/24 19:19:34;;;;;;;2.60;2.40;;;;;;;11.42;68.31;99649.97;8052208;35;20198;-72
2021/05/24 19:24:41;;;;;;;3.03;1.55;;;;;;;11.42;66.90;99661.56;8057027;35;20203;-72
2021/05/24 19:29:44;;;;;;;4.13;1.50;;;;;;;11.38;67.01;99672.75;8058132;35;20454;-72
2021/05/24 19:34:47;;;;;;;2.65;1.63;;;;;;;11.22;67.39;99686.81;8058147;35;20594;-72
2021/05/24 19:39:50;;;;;;;1.90;1.67;;;;;;;11.15;68.32;99683.00;8010184;35;20300;-72
2021/05/24 19:44:53;;;;;;;1.77;1.40;;;;;;;11.16;68.90;99684.69;8006017;35;20548;-74
2021/05/24 20:27:23;;;;;;;1.95;1.20;;;;;;;10.65;67.73;99664.41;8001334;35;20440;-73
2021/05/24 20:32:26;;;;;;;1.10;1.00;;;;;;;10.65;67.82;99673.31;8001266;35;20540;-73
2021/05/24 20:37:30;;;;;;;1.48;1.38;;;;;;;10.58;68.27;99681.06;8001388;35;20454;-73
2021/05/24 20:42:37;;;;;;;1.30;1.20;;;;;;;10.49;68.26;99671.19;8005290;35;20614;-73
2021/05/24 20:47:40;;;;;;;2.13;1.60;;;;;;;10.43;68.30;99668.22;8001739;35;20445;-73
2021/05/24 20:52:43;;;;;;;1.95;1.60;;;;;;;10.36;68.53;99676.81;8001005;35;20601;-73
2021/05/24 20:57:46;;;;;;;1.88;1.50;;;;;;;10.31;68.75;99667.47;7981910;35;20147;-74
2021/05/24 21:02:49;;;;;;;1.83;1.70;;;;;;;10.26;68.88;99670.59;8049954;35;20560;-74
2021/05/24 21:07:52;;;;;;;1.52;1.42;;;;;;;10.24;69.36;99667.22;8050825;35;20170;-74
2021/05/24 21:12:56;;;;;;;1.63;1.40;;;;;;;10.27;69.37;99674.97;8055419;35;21166;-74
2021/05/24 21:17:59;;;;;;;1.73;1.60;;;;;;;10.20;69.37;99670.31;8050765;35;20503;-73
2021/05/24 21:23:03;;;;;;;1.70;1.42;;;;;;;10.15;69.30;99676.09;8055133;35;20189;-74
2021/05/24 21:28:07;;;;;;;3.90;2.33;;;;;;;10.13;69.39;99672.69;8038878;35;20207;-74
2021/05/24 21:33:22;;;;;;;1.27;1.17;;;;;;;10.12;69.46;99682.59;8056272;35;20191;-74
2021/05/24 21:38:25;;;;;;;1.75;1.60;;;;;;;10.19;68.86;99676.66;8039142;35;20560;-74
2021/05/24 21:43:29;;;;;;;1.50;1.40;;;;;;;10.30;68.29;99665.78;8031649;35;20460;-74
2021/05/24 21:48:32;;;;;;;1.40;1.30;;;;;;;10.33;68.01;99663.66;8042838;35;20467;-74
2021/05/24 21:53:34;;;;;;;1.50;1.27;;;;;;;10.32;67.97;99662.00;8045684;35;20195;-74
2021/05/24 21:58:38;;;;;;;1.45;1.35;;;;;;;10.25;68.24;99671.56;8043220;35;20923;-74
2021/05/24 22:03:41;;;;;;;2.55;1.40;;;;;;;10.15;68.58;99657.31;8037342;35;20438;-74
2021/05/24 22:08:44;;;;;;;2.17;1.38;;;;;;;10.09;68.73;99656.03;8042637;35;20563;-74
2021/05/24 22:13:47;;;;;;;2.72;1.48;;;;;;;10.01;68.69;99646.97;8041093;35;20584;-74
2021/05/24 22:18:50;;;;;;;1.95;1.70;;;;;;;9.93;69.05;99653.03;8046337;35;20442;-74
2021/05/24 22:23:52;;;;;;;1.55;1.40;;;;;;;9.79;69.25;99646.19;8074989;35;21131;-74
2021/05/24 22:28:56;;;;;;;1.77;1.20;;;;;;;9.68;69.70;99660.56;8077168;35;21578;-74
2021/05/24 22:33:58;;;;;;;1.80;1.60;;;;;;;9.65;69.92;99654.59;8074764;35;20277;-74
2021/05/24 22:39:01;;;;;;;1.92;1.70;;;;;;;9.53;70.30;99643.16;8071896;35;20699;-74
2021/05/24 22:44:06;;;;;;;1.70;1.60;;;;;;;9.49;70.56;99645.25;8072323;35;20440;-74
2021/05/24 22:49:08;;;;;;;2.00;1.80;;;;;;;9.52;70.84;99652.19;8070972;35;20187;-74
2021/05/24 22:54:11;;;;;;;2.33;1.80;;;;;;;9.47;70.75;99655.25;8069576;35;20633;-74
2021/05/24 22:59:14;;;;;;;2.30;2.00;;;;;;;9.46;71.00;99650.91;8071666;35;20194;-74
2021/05/24 23:04:17;;;;;;;1.88;1.60;;;;;;;9.57;70.90;99660.69;8074102;35;20552;-74
2021/05/24 23:09:20;;;;;;;1.75;1.60;;;;;;;9.70;70.29;99679.19;8074730;35;20163;-74
2021/05/24 23:14:23;;;;;;;2.08;1.80;;;;;;;9.77;69.67;99682.19;8074269;35;20502;-74
2021/05/24 23:19:26;;;;;;;2.45;1.48;;;;;;;9.87;68.54;99685.75;8065293;35;20472;-74
2021/05/24 23:24:29;;;;;;;3.30;1.50;;;;;;;9.84;67.57;99681.47;8056997;35;20545;-73
2021/05/24 23:29:32;;;;;;;2.03;1.48;;;;;;;9.90;67.33;99675.63;8058229;35;20568;-73
2021/05/24 23:34:35;;;;;;;3.75;1.30;;;;;;;9.68;69.15;99665.06;8055558;35;20187;-73
2021/05/24 23:39:38;;;;;;;1.50;1.38;;;;;;;9.71;68.87;99665.66;8056665;35;20608;-74
2021/05/24 23:44:41;;;;;;;1.80;1.70;;;;;;;9.63;68.99;99680.72;8065362;35;20641;-73
2021/05/24 23:49:44;;;;;;;3.30;1.27;;;;;;;9.41;69.05;99687.97;8069194;35;20450;-73
2021/05/24 23:54:46;;;;;;;1.92;1.40;;;;;;;9.69;68.12;99688.22;8069413;35;20262;-74
2021/05/24 23:59:50;;;;;;;1.55;1.45;;;;;;;9.59;68.27;99701.59;8068272;35;21990;-74
